createdAt,value
2023-03-04T00:01:39.043Z,59.85
2023-03-04T00:04:05.843Z,60.28
2023-03-04T00:06:34.273Z,59.75
2023-03-04T00:09:00.804Z,59.62
2023-03-04T00:11:29.176Z,60.25
2023-03-04T00:13:55.767Z,60.23
2023-03-04T00:16:22.219Z,60.06
2023-03-04T00:18:48.701Z,61.10
2023-03-04T00:21:15.079Z,60.97
2023-03-04T00:23:41.500Z,61.95
2023-03-04T00:26:07.888Z,61.52
2023-03-04T00:28:34.292Z,61.39
2023-03-04T00:31:00.636Z,61.09
2023-03-04T00:33:27.046Z,61.35
2023-03-04T00:35:56.168Z,61.31
2023-03-04T00:38:22.641Z,61.51
2023-03-04T00:40:49.066Z,62.55
2023-03-04T00:43:15.498Z,62.63
2023-03-04T00:45:48.472Z,62.13
2023-03-04T00:48:14.901Z,62.24
2023-03-04T00:50:41.325Z,62.27
2023-03-04T00:53:07.731Z,62.14
2023-03-04T00:55:34.163Z,62.56
2023-03-04T00:58:02.742Z,62.29
2023-03-04T01:00:30.823Z,62.94
2023-03-04T01:02:57.487Z,62.86
2023-03-04T01:05:23.895Z,62.61
2023-03-04T01:07:50.335Z,62.68
2023-03-04T01:12:57.050Z,62.93
2023-03-04T01:15:23.454Z,62.59
2023-03-04T01:17:49.957Z,63.09
2023-03-04T01:20:16.391Z,62.78
2023-03-04T01:22:42.845Z,63.42
2023-03-04T01:25:12.090Z,62.90
2023-03-04T01:27:38.452Z,62.88
2023-03-04T01:30:04.890Z,63.04
2023-03-04T01:32:32.428Z,62.51
2023-03-04T01:34:59.062Z,62.42
2023-03-04T01:37:25.535Z,62.54
2023-03-04T01:39:51.896Z,62.21
2023-03-04T01:42:18.274Z,62.21
2023-03-04T01:44:44.692Z,61.96
2023-03-04T01:47:11.083Z,61.62
2023-03-04T01:49:37.537Z,61.72
2023-03-04T01:52:03.942Z,61.18
2023-03-04T01:54:30.316Z,60.88
2023-03-04T01:56:56.707Z,60.76
2023-03-04T01:59:23.164Z,60.68
2023-03-04T02:01:49.560Z,61.41
2023-03-04T02:04:16.078Z,60.70
2023-03-04T02:06:42.580Z,60.11
2023-03-04T02:09:09.167Z,60.64
2023-03-04T02:11:35.562Z,60.40
2023-03-04T02:14:01.980Z,60.68
2023-03-04T02:16:28.386Z,60.20
2023-03-04T02:19:01.233Z,60.70
2023-03-04T02:21:30.479Z,60.22
2023-03-04T02:23:56.845Z,59.72
2023-03-04T02:26:27.384Z,59.85
2023-03-04T02:28:53.848Z,59.83
2023-03-04T02:31:20.294Z,60.17
2023-03-04T02:33:46.857Z,60.27
2023-03-04T02:36:13.409Z,60.56
2023-03-04T02:38:39.835Z,60.14
2023-03-04T02:41:06.271Z,60.56
2023-03-04T02:43:32.641Z,61.07
2023-03-04T02:45:59.037Z,60.71
2023-03-04T02:48:25.489Z,60.81
2023-03-04T02:50:51.918Z,61.01
2023-03-04T02:53:18.412Z,60.41
2023-03-04T02:55:44.852Z,60.86
2023-03-04T02:58:11.300Z,60.77
2023-03-04T03:00:37.718Z,61.55
2023-03-04T03:03:04.239Z,60.79
2023-03-04T03:05:30.686Z,61.18
2023-03-04T03:07:57.128Z,61.77
2023-03-04T03:10:23.520Z,61.50
2023-03-04T03:12:50.199Z,61.41
2023-03-04T03:15:16.639Z,61.53
2023-03-04T03:17:43.105Z,61.53
2023-03-04T03:20:09.579Z,61.83
2023-03-04T03:22:35.994Z,62.38
2023-03-04T03:25:02.603Z,61.65
2023-03-04T03:27:29.130Z,62.44
2023-03-04T03:29:55.547Z,61.43
2023-03-04T03:32:22.109Z,61.68
2023-03-04T03:34:48.476Z,60.72
2023-03-04T03:37:15.005Z,61.11
2023-03-04T03:39:41.393Z,60.52
2023-03-04T03:42:07.765Z,60.95
2023-03-04T03:44:34.165Z,61.03
2023-03-04T03:47:00.599Z,60.60
2023-03-04T03:49:27.005Z,61.13
2023-03-04T03:51:53.465Z,60.95
2023-03-04T03:54:19.902Z,60.40
2023-03-04T03:56:46.306Z,60.83
2023-03-04T03:59:12.725Z,60.17
2023-03-04T04:01:39.250Z,60.74
2023-03-04T04:04:05.643Z,61.11
2023-03-04T04:06:32.099Z,60.73
2023-03-04T04:08:58.589Z,60.87
2023-03-04T04:11:25.064Z,61.33
2023-03-04T04:13:51.507Z,60.98
2023-03-04T04:16:17.915Z,61.17
2023-03-04T04:18:44.335Z,61.18
2023-03-04T04:21:10.718Z,61.09
2023-03-04T04:23:37.118Z,61.23
2023-03-04T04:26:05.934Z,60.73
2023-03-04T04:28:32.326Z,60.97
2023-03-04T04:30:58.814Z,61.36
2023-03-04T04:33:25.370Z,60.99
2023-03-04T04:35:51.868Z,60.46
2023-03-04T04:38:18.397Z,60.90
2023-03-04T04:40:44.825Z,61.04
2023-03-04T04:43:11.267Z,60.91
2023-03-04T04:45:37.799Z,61.25
2023-03-04T04:48:04.295Z,61.15
2023-03-04T04:50:32.864Z,61.12
2023-03-04T04:52:59.483Z,60.42
2023-03-04T04:55:25.948Z,60.38
2023-03-04T04:57:52.528Z,60.64
2023-03-04T05:00:18.960Z,59.61
2023-03-04T05:02:45.379Z,60.02
2023-03-04T05:05:11.792Z,60.25
2023-03-04T05:07:38.206Z,60.67
2023-03-04T05:10:04.603Z,60.75
2023-03-04T05:12:30.986Z,60.76
2023-03-04T05:14:57.418Z,60.62
2023-03-04T05:17:23.814Z,60.35
2023-03-04T05:19:50.438Z,60.44
2023-03-04T05:22:16.913Z,60.00
2023-03-04T05:24:43.326Z,60.14
2023-03-04T05:27:09.741Z,59.89
2023-03-04T05:29:36.152Z,59.76
2023-03-04T05:32:02.618Z,60.17
2023-03-04T05:34:29.017Z,60.15
2023-03-04T05:36:55.425Z,61.20
2023-03-04T05:39:21.813Z,60.72
2023-03-04T05:41:48.244Z,61.44
2023-03-04T05:44:14.701Z,60.87
2023-03-04T05:46:41.170Z,60.95
2023-03-04T05:49:07.580Z,61.52
2023-03-04T05:51:33.996Z,61.29
2023-03-04T05:54:00.409Z,61.63
2023-03-04T05:56:26.796Z,61.76
2023-03-04T05:58:53.150Z,61.70
2023-03-04T06:01:19.558Z,61.25
2023-03-04T06:03:46.128Z,61.66
2023-03-04T06:06:12.618Z,61.57
2023-03-04T06:08:39.070Z,61.63
2023-03-04T06:11:05.497Z,61.54
2023-03-04T06:13:31.956Z,62.08
2023-03-04T06:15:58.397Z,61.32
2023-03-04T06:18:24.828Z,61.67
2023-03-04T06:20:51.296Z,61.94
2023-03-04T06:23:17.663Z,61.23
2023-03-04T06:25:44.122Z,61.63
2023-03-04T06:28:10.558Z,61.74
2023-03-04T06:30:36.983Z,61.65
2023-03-04T06:33:03.432Z,62.25
2023-03-04T06:35:29.907Z,62.51
2023-03-04T06:37:56.342Z,62.41
2023-03-04T06:40:22.768Z,62.53
2023-03-04T06:42:49.241Z,62.64
2023-03-04T06:45:15.612Z,62.79
2023-03-04T06:47:42.066Z,63.22
2023-03-04T06:50:08.466Z,62.91
2023-03-04T06:52:34.857Z,62.62
2023-03-04T06:55:01.247Z,62.58
2023-03-04T06:57:27.598Z,62.91
2023-03-04T06:59:53.995Z,63.08
2023-03-04T07:02:20.449Z,63.08
2023-03-04T07:04:46.883Z,62.70
2023-03-04T07:07:13.338Z,63.33
2023-03-04T07:09:39.763Z,62.84
2023-03-04T07:12:06.212Z,62.92
2023-03-04T07:14:35.357Z,62.96
2023-03-04T07:17:01.873Z,62.80
2023-03-04T07:19:28.217Z,63.65
2023-03-04T07:21:54.635Z,63.27
2023-03-04T07:24:21.103Z,63.91
2023-03-04T07:26:47.516Z,64.09
2023-03-04T07:29:13.913Z,63.19
2023-03-04T07:31:40.404Z,63.18
2023-03-04T07:34:06.873Z,63.09
2023-03-04T07:36:33.309Z,63.36
2023-03-04T07:38:59.817Z,63.64
2023-03-04T07:41:26.225Z,63.75
2023-03-04T07:43:52.661Z,64.72
2023-03-04T07:46:19.037Z,64.45
2023-03-04T07:48:45.525Z,64.32
2023-03-04T07:51:11.950Z,64.24
2023-03-04T07:53:38.338Z,64.59
2023-03-04T07:56:04.752Z,64.65
2023-03-04T07:58:31.277Z,64.04
2023-03-04T08:00:57.697Z,64.93
2023-03-04T08:03:24.202Z,64.88
2023-03-04T08:08:32.043Z,64.38
2023-03-04T08:10:58.672Z,64.12
2023-03-04T08:13:28.830Z,64.52
2023-03-04T08:15:58.494Z,64.11
2023-03-04T08:18:25.084Z,64.67
2023-03-04T08:20:51.518Z,64.30
2023-03-04T08:23:17.945Z,65.27
2023-03-04T08:25:44.362Z,65.03
2023-03-04T08:28:10.791Z,65.00
2023-03-04T08:30:37.187Z,64.93
2023-03-04T08:33:03.644Z,64.49
2023-03-04T08:35:30.140Z,64.64
2023-03-04T08:37:56.750Z,64.26
2023-03-04T08:40:23.354Z,64.59
2023-03-04T08:42:49.883Z,63.45
2023-03-04T08:45:20.470Z,63.74
2023-03-04T08:47:47.167Z,62.85
2023-03-04T08:50:13.626Z,62.81
2023-03-04T08:52:40.274Z,62.76
2023-03-04T08:55:06.725Z,62.92
2023-03-04T08:57:34.482Z,63.40
2023-03-04T09:00:00.934Z,63.64
2023-03-04T09:02:27.511Z,63.75
2023-03-04T09:04:54.000Z,63.49
2023-03-04T09:07:21.504Z,63.93
2023-03-04T09:09:48.934Z,63.95
2023-03-04T09:12:15.363Z,64.93
2023-03-04T09:14:41.902Z,65.76
2023-03-04T09:17:08.315Z,65.02
2023-03-04T09:19:34.777Z,64.30
2023-03-04T09:22:01.182Z,64.55
2023-03-04T09:24:27.876Z,64.65
2023-03-04T09:26:54.324Z,63.98
2023-03-04T09:29:20.813Z,64.15
2023-03-04T09:31:47.336Z,62.76
2023-03-04T09:34:13.810Z,62.88
2023-03-04T09:36:40.260Z,61.92
2023-03-04T09:39:06.845Z,61.65
2023-03-04T09:41:35.188Z,60.84
2023-03-04T09:44:01.665Z,60.60
2023-03-04T09:46:28.200Z,60.31
2023-03-04T09:48:54.706Z,60.10
2023-03-04T09:51:21.212Z,60.71
2023-03-04T09:53:47.650Z,60.62
2023-03-04T09:56:14.235Z,59.23
2023-03-04T09:58:40.917Z,59.74
2023-03-04T10:01:07.578Z,59.79
2023-03-04T10:03:34.076Z,59.74
2023-03-04T10:06:00.700Z,60.08
2023-03-04T10:08:27.118Z,59.97
2023-03-04T10:10:53.607Z,59.59
2023-03-04T10:13:20.237Z,59.74
2023-03-04T10:15:46.698Z,58.74
2023-03-04T10:18:13.504Z,57.82
2023-03-04T10:20:39.988Z,57.71
2023-03-04T10:23:06.631Z,57.15
2023-03-04T10:25:33.112Z,56.52
2023-03-04T10:27:59.618Z,56.87
2023-03-04T10:30:26.118Z,57.23
2023-03-04T10:32:52.588Z,58.02
2023-03-04T10:35:20.487Z,57.13
2023-03-04T10:37:47.075Z,57.47
2023-03-04T10:40:13.517Z,57.03
2023-03-04T10:42:40.070Z,57.10
2023-03-04T10:45:06.617Z,56.37
2023-03-04T10:47:33.111Z,55.93
2023-03-04T10:49:59.516Z,55.32
2023-03-04T10:52:25.929Z,56.14
2023-03-04T10:54:52.402Z,55.80
2023-03-04T10:57:18.821Z,55.97
2023-03-04T10:59:45.229Z,55.96
2023-03-04T11:02:11.678Z,55.93
2023-03-04T11:04:38.150Z,56.17
2023-03-04T11:07:04.578Z,56.22
2023-03-04T11:09:31.051Z,56.03
2023-03-04T11:11:57.498Z,56.13
2023-03-04T11:14:23.977Z,56.01
2023-03-04T11:16:50.446Z,55.04
2023-03-04T11:19:16.939Z,55.86
2023-03-04T11:21:45.502Z,55.14
2023-03-04T11:24:27.131Z,55.50
2023-03-04T11:26:53.850Z,55.16
2023-03-04T11:29:20.320Z,54.57
2023-03-04T11:31:46.772Z,54.14
2023-03-04T11:34:13.719Z,53.82
2023-03-04T11:36:40.778Z,55.15
2023-03-04T11:39:07.172Z,55.95
2023-03-04T11:41:33.671Z,54.99
2023-03-04T11:44:00.166Z,54.87
2023-03-04T11:46:29.247Z,55.25
2023-03-04T11:48:55.677Z,54.91
2023-03-04T11:51:23.425Z,52.80
2023-03-04T11:53:50.142Z,52.68
2023-03-04T11:56:16.578Z,51.69
2023-03-04T11:58:43.015Z,52.32
2023-03-04T12:01:10.653Z,51.67
2023-03-04T12:03:37.394Z,51.90
2023-03-04T12:06:03.862Z,51.61
2023-03-04T12:08:30.296Z,51.30
2023-03-04T12:10:57.854Z,51.80
2023-03-04T12:13:24.393Z,51.51
2023-03-04T12:15:50.833Z,51.26
2023-03-04T12:18:17.362Z,50.78
2023-03-04T12:20:43.823Z,50.86
2023-03-04T12:23:10.295Z,51.41
2023-03-04T12:25:36.769Z,51.52
2023-03-04T12:28:03.290Z,51.18
2023-03-04T12:30:29.673Z,50.90
2023-03-04T12:32:56.179Z,50.87
2023-03-04T12:35:22.568Z,51.33
2023-03-04T12:37:49.056Z,51.50
2023-03-04T12:40:16.049Z,50.93
2023-03-04T12:42:42.522Z,51.48
2023-03-04T12:45:08.987Z,51.23
2023-03-04T12:47:35.460Z,51.29
2023-03-04T12:50:01.924Z,51.57
2023-03-04T12:52:30.822Z,50.54
2023-03-04T12:54:57.258Z,50.31
2023-03-04T12:57:23.690Z,51.40
2023-03-04T12:59:50.163Z,52.79
2023-03-04T13:02:16.608Z,52.92
2023-03-04T13:04:43.084Z,53.18
2023-03-04T13:07:11.174Z,55.33
2023-03-04T13:09:38.819Z,56.14
2023-03-04T13:12:05.261Z,55.94
2023-03-04T13:14:31.785Z,55.80
2023-03-04T13:16:58.537Z,55.07
2023-03-04T13:19:25.061Z,55.54
2023-03-04T13:21:51.626Z,56.47
2023-03-04T13:24:18.589Z,55.85
2023-03-04T13:26:45.008Z,55.50
2023-03-04T13:29:11.552Z,55.37
2023-03-04T13:31:38.082Z,55.51
2023-03-04T13:34:04.606Z,54.07
2023-03-04T13:36:31.132Z,52.52
2023-03-04T13:38:59.861Z,53.27
2023-03-04T13:41:26.350Z,52.69
2023-03-04T13:43:53.208Z,50.77
2023-03-04T13:46:19.761Z,54.98
2023-03-04T13:48:46.346Z,56.06
2023-03-04T13:51:23.774Z,57.56
2023-03-04T13:53:55.266Z,57.48
2023-03-04T13:56:21.723Z,58.02
2023-03-04T13:58:49.407Z,57.82
2023-03-04T14:01:15.935Z,58.70
2023-03-04T14:03:44.790Z,58.79
2023-03-04T14:06:11.265Z,58.74
2023-03-04T14:08:37.816Z,59.36
2023-03-04T14:11:04.253Z,58.84
2023-03-04T14:13:30.681Z,58.97
2023-03-04T14:15:57.120Z,58.97
2023-03-04T14:18:23.628Z,59.08
2023-03-04T14:20:50.238Z,59.45
2023-03-04T14:23:16.737Z,58.82
2023-03-04T14:25:43.245Z,58.68
2023-03-04T14:28:09.664Z,58.05
2023-03-04T14:30:42.780Z,59.13
2023-03-04T14:33:09.971Z,58.72
2023-03-04T14:35:36.555Z,58.13
2023-03-04T14:38:03.010Z,58.33
2023-03-04T14:40:29.477Z,56.12
2023-03-04T14:42:55.897Z,55.48
2023-03-04T14:45:22.380Z,56.05
2023-03-04T14:47:49.043Z,57.43
2023-03-04T14:50:15.591Z,56.79
2023-03-04T14:52:42.096Z,55.48
2023-03-04T14:55:08.543Z,54.74
2023-03-04T14:57:35.008Z,54.46
2023-03-04T15:00:01.558Z,54.45
2023-03-04T15:02:28.080Z,54.29
2023-03-04T15:04:54.509Z,53.05
2023-03-04T15:07:21.003Z,54.12
2023-03-04T15:09:47.374Z,53.73
2023-03-04T15:12:13.865Z,53.46
2023-03-04T15:14:41.345Z,55.45
2023-03-04T15:17:07.866Z,55.67
2023-03-04T15:19:34.309Z,55.45
2023-03-04T15:22:00.729Z,54.03
2023-03-04T15:24:27.182Z,53.91
2023-03-04T15:26:53.703Z,52.49
2023-03-04T15:29:20.126Z,52.79
2023-03-04T15:31:46.540Z,52.49
2023-03-04T15:34:12.915Z,53.28
2023-03-04T15:36:39.377Z,53.89
2023-03-04T15:39:05.868Z,53.88
2023-03-04T15:41:32.308Z,54.32
2023-03-04T15:43:58.729Z,53.95
2023-03-04T15:46:25.342Z,54.22
2023-03-04T15:48:51.768Z,53.93
2023-03-04T15:51:18.172Z,53.08
2023-03-04T15:53:44.590Z,55.21
2023-03-04T15:56:11.032Z,55.59
2023-03-04T15:58:37.748Z,54.40
2023-03-04T16:01:05.281Z,54.36
2023-03-04T16:03:31.770Z,54.55
2023-03-04T16:05:58.313Z,52.87
2023-03-04T16:08:24.718Z,54.66
2023-03-04T16:10:51.171Z,55.54
2023-03-04T16:13:17.605Z,55.15
2023-03-04T16:15:44.229Z,55.94
2023-03-04T16:18:10.664Z,56.75
2023-03-04T16:20:37.201Z,56.80
2023-03-04T16:23:03.636Z,56.57
2023-03-04T16:25:30.078Z,56.30
2023-03-04T16:27:56.510Z,56.67
2023-03-04T16:30:23.047Z,54.64
2023-03-04T16:32:49.535Z,55.47
2023-03-04T16:35:18.962Z,55.00
2023-03-04T16:37:45.465Z,55.11
2023-03-04T16:40:11.927Z,55.35
2023-03-04T16:42:38.509Z,55.04
2023-03-04T16:45:07.601Z,55.62
2023-03-04T16:47:34.134Z,55.83
2023-03-04T16:50:05.528Z,55.07
2023-03-04T16:52:31.973Z,54.21
2023-03-04T16:54:58.424Z,53.20
2023-03-04T16:57:25.058Z,52.58
2023-03-04T16:59:51.572Z,53.11
2023-03-04T17:02:17.985Z,53.23
2023-03-04T17:04:44.473Z,52.76
2023-03-04T17:07:10.894Z,53.11
2023-03-04T17:09:37.343Z,53.53
2023-03-04T17:12:03.845Z,53.75
2023-03-04T17:14:30.298Z,53.86
2023-03-04T17:16:56.807Z,54.52
2023-03-04T17:19:23.262Z,54.71
2023-03-04T17:21:49.725Z,55.19
2023-03-04T17:24:16.217Z,55.61
2023-03-04T17:26:42.762Z,56.06
2023-03-04T17:29:09.174Z,56.15
2023-03-04T17:31:35.687Z,56.03
2023-03-04T17:34:04.306Z,56.16
2023-03-04T17:36:31.993Z,56.06
2023-03-04T17:38:58.522Z,55.26
2023-03-04T17:41:24.982Z,55.30
2023-03-04T17:43:51.504Z,54.58
2023-03-04T17:46:18.236Z,54.78
2023-03-04T17:48:44.767Z,54.21
2023-03-04T17:51:11.232Z,52.68
2023-03-04T17:53:37.697Z,52.59
2023-03-04T17:56:04.181Z,50.61
2023-03-04T17:58:30.718Z,48.65
2023-03-04T18:00:59.917Z,48.05
2023-03-04T18:03:26.415Z,48.70
2023-03-04T18:05:52.889Z,48.57
2023-03-04T18:08:19.980Z,48.96
2023-03-04T18:10:48.684Z,49.13
2023-03-04T18:13:15.125Z,48.19
2023-03-04T18:15:41.582Z,48.41
2023-03-04T18:18:08.146Z,47.90
2023-03-04T18:20:34.580Z,47.93
2023-03-04T18:23:01.185Z,48.28
2023-03-04T18:25:27.594Z,47.95
2023-03-04T18:27:54.043Z,47.75
2023-03-04T18:30:20.556Z,48.28
2023-03-04T18:32:52.160Z,47.99
2023-03-04T18:35:21.068Z,47.75
2023-03-04T18:37:47.632Z,48.02
2023-03-04T18:40:14.080Z,47.64
2023-03-04T18:42:40.545Z,47.48
2023-03-04T18:45:07.106Z,47.94
2023-03-04T18:47:33.581Z,47.87
2023-03-04T18:50:00.015Z,47.41
2023-03-04T18:52:26.452Z,47.51
2023-03-04T18:54:52.837Z,47.37
2023-03-04T18:57:19.247Z,47.50
2023-03-04T18:59:45.717Z,48.22
2023-03-04T19:02:12.096Z,47.51
2023-03-04T19:04:38.545Z,47.34
2023-03-04T19:07:05.002Z,48.33
2023-03-04T19:09:31.510Z,48.24
2023-03-04T19:11:57.849Z,47.79
2023-03-04T19:14:24.234Z,53.86
2023-03-04T19:16:50.696Z,51.51
2023-03-04T19:19:18.404Z,49.79
2023-03-04T19:21:44.962Z,55.95
2023-03-04T19:24:11.370Z,56.94
2023-03-04T19:26:37.849Z,57.99
2023-03-04T19:29:04.273Z,56.99
2023-03-04T19:31:30.762Z,51.31
2023-03-04T19:33:57.485Z,50.10
2023-03-04T19:36:23.902Z,49.35
2023-03-04T19:38:50.368Z,49.49
2023-03-04T19:41:16.901Z,49.23
2023-03-04T19:43:43.358Z,49.83
2023-03-04T19:46:09.860Z,49.52
2023-03-04T19:48:36.305Z,49.21
2023-03-04T19:51:02.723Z,48.89
2023-03-04T19:53:29.227Z,48.70
2023-03-04T19:55:55.662Z,48.53
2023-03-04T19:58:22.095Z,48.96
2023-03-04T20:00:52.526Z,49.62
2023-03-04T20:03:19.049Z,49.70
2023-03-04T20:05:45.397Z,50.05
2023-03-04T20:08:11.927Z,49.32
2023-03-04T20:10:38.424Z,50.41
2023-03-04T20:13:04.875Z,48.75
2023-03-04T20:15:32.682Z,48.72
2023-03-04T20:17:59.126Z,48.93
2023-03-04T20:20:25.525Z,49.64
2023-03-04T20:22:51.992Z,49.91
2023-03-04T20:25:18.542Z,49.90
2023-03-04T20:27:44.914Z,51.00
2023-03-04T20:30:11.368Z,51.12
2023-03-04T20:32:37.880Z,51.42
2023-03-04T20:35:04.364Z,50.58
2023-03-04T20:37:30.842Z,50.85
2023-03-04T20:39:57.267Z,50.89
2023-03-04T20:42:23.746Z,51.33
2023-03-04T20:44:50.111Z,51.35
2023-03-04T20:47:16.597Z,51.74
2023-03-04T20:49:43.039Z,52.35
2023-03-04T20:52:09.451Z,52.42
2023-03-04T20:54:35.837Z,51.19
2023-03-04T20:57:02.230Z,51.49
2023-03-04T20:59:28.601Z,51.09
2023-03-04T21:01:55.093Z,51.02
2023-03-04T21:04:21.693Z,50.75
2023-03-04T21:06:48.057Z,51.20
2023-03-04T21:09:14.442Z,51.02
2023-03-04T21:11:41.085Z,50.97
2023-03-04T21:14:07.608Z,50.41
2023-03-04T21:16:34.073Z,51.06
2023-03-04T21:19:00.541Z,50.74
2023-03-04T21:21:29.738Z,50.37
2023-03-04T21:23:56.206Z,50.15
2023-03-04T21:26:22.645Z,50.58
2023-03-04T21:28:49.092Z,50.70
2023-03-04T21:31:15.546Z,51.10
2023-03-04T21:33:41.917Z,50.65
2023-03-04T21:36:08.290Z,50.70
2023-03-04T21:38:34.697Z,51.04
2023-03-04T21:41:01.331Z,50.44
2023-03-04T21:43:27.764Z,50.36
2023-03-04T21:45:54.211Z,50.15
2023-03-04T21:48:20.617Z,50.78
2023-03-04T21:50:47.060Z,50.44
2023-03-04T21:53:13.535Z,50.48
2023-03-04T21:55:39.975Z,50.36
2023-03-04T21:58:06.436Z,50.70
2023-03-04T22:00:32.878Z,50.53
2023-03-04T22:02:59.556Z,51.16
2023-03-04T22:05:26.137Z,51.97
2023-03-04T22:07:52.537Z,51.74
2023-03-04T22:10:18.921Z,50.79
2023-03-04T22:12:45.392Z,51.07
2023-03-04T22:15:11.861Z,51.18
2023-03-04T22:17:38.360Z,50.81
2023-03-04T22:20:04.795Z,50.36
2023-03-04T22:22:31.484Z,50.77
2023-03-04T22:24:59.657Z,50.94
2023-03-04T22:27:26.083Z,51.23
2023-03-04T22:29:52.518Z,51.49
2023-03-04T22:32:18.976Z,51.33
2023-03-04T22:34:45.449Z,51.52
2023-03-04T22:37:11.864Z,51.39
2023-03-04T22:39:38.308Z,51.36
2023-03-04T22:42:04.975Z,51.90
2023-03-04T22:44:31.450Z,51.68
2023-03-04T22:46:57.853Z,50.98
2023-03-04T22:49:24.347Z,51.44
2023-03-04T22:51:50.753Z,51.15
2023-03-04T22:54:17.155Z,51.23
2023-03-04T22:56:43.560Z,51.51
2023-03-04T22:59:09.972Z,51.46
2023-03-04T23:01:36.390Z,51.89
2023-03-04T23:04:02.903Z,52.16
2023-03-04T23:06:29.317Z,51.50
2023-03-04T23:08:55.820Z,51.46
2023-03-04T23:11:22.234Z,51.78
2023-03-04T23:13:49.853Z,51.76
2023-03-04T23:16:16.300Z,52.14
2023-03-04T23:18:42.736Z,52.83
2023-03-04T23:21:10.589Z,53.03
2023-03-04T23:23:37.319Z,53.13
2023-03-04T23:26:04.814Z,53.59
2023-03-04T23:28:31.327Z,54.84
2023-03-04T23:30:57.791Z,55.03
2023-03-04T23:33:24.252Z,56.17
2023-03-04T23:35:50.750Z,55.99
2023-03-04T23:38:17.288Z,56.19
2023-03-04T23:40:43.721Z,57.38
2023-03-04T23:43:10.239Z,57.13
2023-03-04T23:45:36.699Z,55.88
2023-03-04T23:48:03.186Z,55.34
2023-03-04T23:50:29.643Z,54.63
2023-03-04T23:52:56.146Z,54.18
2023-03-04T23:55:22.622Z,55.75
2023-03-04T23:57:49.055Z,55.50
